createdAt,value
2023-03-05T00:01:55.025Z,90.10
2023-03-05T00:04:21.515Z,90.10
2023-03-05T00:06:48.102Z,89.80
2023-03-05T00:09:14.656Z,89.50
2023-03-05T00:11:41.194Z,90.11
2023-03-05T00:14:07.707Z,90.35
2023-03-05T00:16:34.289Z,89.14
2023-03-05T00:19:01.706Z,89.83
2023-03-05T00:21:34.071Z,89.71
2023-03-05T00:24:02.790Z,89.98
2023-03-05T00:26:30.771Z,90.37
2023-03-05T00:28:58.210Z,90.18
2023-03-05T00:31:31.781Z,89.45
2023-03-05T00:34:01.005Z,90.19
2023-03-05T00:36:28.059Z,90.62
2023-03-05T00:38:55.473Z,90.66
2023-03-05T00:41:22.555Z,90.98
2023-03-05T00:43:49.293Z,91.07
2023-03-05T00:46:16.497Z,90.86
2023-03-05T00:48:43.317Z,91.65
2023-03-05T00:51:09.974Z,91.52
2023-03-05T00:53:36.688Z,91.71
2023-03-05T00:56:04.648Z,92.19
2023-03-05T00:58:31.216Z,91.73
2023-03-05T01:00:59.950Z,92.29
2023-03-05T01:03:27.507Z,93.18
2023-03-05T01:05:55.287Z,93.67
2023-03-05T01:08:21.779Z,93.33
2023-03-05T01:10:48.764Z,93.91
2023-03-05T01:13:15.278Z,94.32
2023-03-05T01:15:42.099Z,94.92
2023-03-05T01:18:08.885Z,94.16
2023-03-05T01:20:35.637Z,94.71
2023-03-05T01:23:02.922Z,94.93
2023-03-05T01:25:29.549Z,94.59
2023-03-05T01:27:56.744Z,94.86
2023-03-05T01:30:23.284Z,95.09
2023-03-05T01:32:49.852Z,94.41
2023-03-05T01:35:20.416Z,94.16
2023-03-05T01:37:47.514Z,93.28
2023-03-05T01:40:17.859Z,93.57
2023-03-05T01:42:48.954Z,93.76
2023-03-05T01:45:18.555Z,93.73
2023-03-05T01:47:45.518Z,93.38
2023-03-05T01:50:16.796Z,94.04
2023-03-05T01:52:49.649Z,94.21
2023-03-05T01:55:37.155Z,93.94
2023-03-05T01:58:08.733Z,93.96
2023-03-05T02:00:40.032Z,94.08
2023-03-05T02:03:10.458Z,94.30
2023-03-05T02:05:41.086Z,94.34
2023-03-05T02:08:10.296Z,94.67
2023-03-05T02:10:40.104Z,95.06
2023-03-05T02:13:09.772Z,95.61
2023-03-05T02:15:37.733Z,96.31
2023-03-05T02:18:05.860Z,96.20
2023-03-05T02:20:43.936Z,95.98
2023-03-05T02:23:10.496Z,95.56
2023-03-05T02:25:37.037Z,95.71
2023-03-05T02:28:08.928Z,96.47
2023-03-05T02:30:35.943Z,96.71
2023-03-05T02:33:03.134Z,97.17
2023-03-05T02:35:29.676Z,96.98
2023-03-05T02:37:57.481Z,97.90
2023-03-05T02:40:24.298Z,99.42
2023-03-05T02:42:52.101Z,98.87
2023-03-05T02:45:18.974Z,100.00
2023-03-05T02:47:45.743Z,100.00
2023-03-05T02:50:12.366Z,100.00
2023-03-05T02:52:40.335Z,100.00
2023-03-05T02:55:11.237Z,100.00
2023-03-05T02:57:39.288Z,100.00
2023-03-05T03:00:06.687Z,100.00
2023-03-05T03:02:34.262Z,100.00
2023-03-05T03:05:00.753Z,100.00
2023-03-05T03:07:27.214Z,100.00
2023-03-05T03:09:53.846Z,100.00
2023-03-05T03:12:20.327Z,100.00
2023-03-05T03:14:46.784Z,100.00
2023-03-05T03:17:15.935Z,100.00
2023-03-05T03:19:43.699Z,100.00
2023-03-05T03:22:12.047Z,100.00
2023-03-05T03:24:39.585Z,100.00
2023-03-05T03:27:06.902Z,100.00
2023-03-05T03:29:33.429Z,100.00
2023-03-05T03:32:00.004Z,100.00
2023-03-05T03:34:27.124Z,100.00
2023-03-05T03:36:54.220Z,100.00
2023-03-05T03:39:21.963Z,100.00
2023-03-05T03:41:50.833Z,100.00
2023-03-05T03:44:18.885Z,100.00
2023-03-05T03:46:47.026Z,100.00
2023-03-05T03:49:23.313Z,100.00
2023-03-05T03:51:51.456Z,99.60
2023-03-05T03:54:19.054Z,98.82
2023-03-05T03:56:45.572Z,99.93
2023-03-05T03:59:13.011Z,99.70
2023-03-05T04:01:39.522Z,98.98
2023-03-05T04:04:07.243Z,98.91
2023-03-05T04:06:34.489Z,99.35
2023-03-05T04:09:01.020Z,98.23
2023-03-05T04:11:27.505Z,98.75
2023-03-05T04:13:54.004Z,98.91
2023-03-05T04:16:20.630Z,98.92
2023-03-05T04:18:47.634Z,98.25
2023-03-05T04:21:14.184Z,98.45
2023-03-05T04:23:41.146Z,99.08
2023-03-05T04:26:07.691Z,98.57
2023-03-05T04:28:35.271Z,98.57
2023-03-05T04:31:02.527Z,98.12
2023-03-05T04:33:29.087Z,98.77
2023-03-05T04:35:55.932Z,98.35
2023-03-05T04:38:22.636Z,99.19
2023-03-05T04:40:49.119Z,97.69
2023-03-05T04:43:15.657Z,97.94
2023-03-05T04:45:43.290Z,98.10
2023-03-05T04:48:11.447Z,97.45
2023-03-05T04:50:38.716Z,97.79
2023-03-05T04:53:05.557Z,97.06
2023-03-05T04:55:32.070Z,96.60
2023-03-05T04:57:58.734Z,97.61
2023-03-05T05:00:25.491Z,97.18
2023-03-05T05:02:52.634Z,96.63
2023-03-05T05:05:22.446Z,96.81
2023-03-05T05:07:49.006Z,97.23
2023-03-05T05:10:16.301Z,96.09
2023-03-05T05:12:43.003Z,97.11
2023-03-05T05:15:11.638Z,97.06
2023-03-05T05:17:38.252Z,96.95
2023-03-05T05:20:06.652Z,97.61
2023-03-05T05:22:33.806Z,97.46
2023-03-05T05:25:00.824Z,96.07
2023-03-05T05:27:27.604Z,96.71
2023-03-05T05:29:54.050Z,97.73
2023-03-05T05:32:22.520Z,97.36
2023-03-05T05:34:49.303Z,97.04
2023-03-05T05:37:15.883Z,97.52
2023-03-05T05:39:42.318Z,98.63
2023-03-05T05:42:08.852Z,97.60
2023-03-05T05:44:35.467Z,96.69
2023-03-05T05:47:02.029Z,96.05
2023-03-05T05:49:28.675Z,96.81
2023-03-05T05:51:55.227Z,96.42
2023-03-05T05:54:22.492Z,96.60
2023-03-05T05:56:48.944Z,97.41
2023-03-05T05:59:15.413Z,96.52
2023-03-05T06:01:41.944Z,96.34
2023-03-05T06:04:08.450Z,94.96
2023-03-05T06:06:35.022Z,96.56
2023-03-05T06:09:02.051Z,97.02
2023-03-05T06:11:28.617Z,96.14
2023-03-05T06:13:55.474Z,96.87
2023-03-05T06:16:24.230Z,95.62
2023-03-05T06:18:54.031Z,96.97
2023-03-05T06:21:22.308Z,96.46
2023-03-05T06:23:49.649Z,97.39
2023-03-05T06:26:19.100Z,96.28
2023-03-05T06:28:45.886Z,97.65
2023-03-05T06:31:25.807Z,96.45
2023-03-05T06:33:54.594Z,96.96
2023-03-05T06:36:22.477Z,98.12
2023-03-05T06:38:52.060Z,96.83
2023-03-05T06:41:22.960Z,96.46
2023-03-05T06:43:49.570Z,96.85
2023-03-05T06:46:17.940Z,96.34
2023-03-05T06:48:44.822Z,96.50
2023-03-05T06:51:35.746Z,96.28
2023-03-05T06:54:07.885Z,95.98
2023-03-05T06:56:38.725Z,95.37
2023-03-05T06:59:05.626Z,96.06
2023-03-05T07:01:32.351Z,95.64
2023-03-05T07:04:00.283Z,96.07
2023-03-05T07:06:30.038Z,95.78
2023-03-05T07:08:57.721Z,95.01
2023-03-05T07:11:25.287Z,94.60
2023-03-05T07:13:51.868Z,95.28
2023-03-05T07:16:26.366Z,94.75
2023-03-05T07:18:53.829Z,94.16
2023-03-05T07:21:27.514Z,96.62
2023-03-05T07:23:55.213Z,94.57
2023-03-05T07:26:22.675Z,93.54
2023-03-05T07:28:49.211Z,93.49
2023-03-05T07:31:21.433Z,94.89
2023-03-05T07:33:49.514Z,93.85
2023-03-05T07:36:17.272Z,93.10
2023-03-05T07:38:43.866Z,92.92
2023-03-05T07:41:19.998Z,92.00
2023-03-05T07:43:48.944Z,92.36
2023-03-05T07:46:17.366Z,91.35
2023-03-05T07:48:43.990Z,92.15
2023-03-05T07:51:17.327Z,90.77
2023-03-05T07:53:44.922Z,90.66
2023-03-05T07:56:11.765Z,92.17
2023-03-05T07:58:38.382Z,92.04
2023-03-05T08:01:13.438Z,91.73
2023-03-05T08:03:41.570Z,91.32
2023-03-05T08:06:08.939Z,91.13
2023-03-05T08:08:36.240Z,90.80
2023-03-05T08:11:07.901Z,90.37
2023-03-05T08:13:34.595Z,89.74
2023-03-05T08:16:08.043Z,90.26
2023-03-05T08:18:34.962Z,89.77
2023-03-05T08:21:01.678Z,87.92
2023-03-05T08:23:28.772Z,88.77
2023-03-05T08:25:55.876Z,88.95
2023-03-05T08:28:22.430Z,88.16
2023-03-05T08:30:49.459Z,88.03
2023-03-05T08:33:19.407Z,87.71
2023-03-05T08:35:45.973Z,87.51
2023-03-05T08:38:12.454Z,86.41
2023-03-05T08:40:38.911Z,87.72
2023-03-05T08:43:07.120Z,86.48
2023-03-05T08:45:33.825Z,86.60
2023-03-05T08:48:00.290Z,86.60
2023-03-05T08:50:26.965Z,86.24
2023-03-05T08:52:53.418Z,85.83
2023-03-05T08:55:19.879Z,85.65
2023-03-05T08:57:46.362Z,86.50
2023-03-05T09:00:13.929Z,86.27
2023-03-05T09:02:40.527Z,85.93
2023-03-05T09:05:07.646Z,85.70
2023-03-05T09:07:34.171Z,83.61
2023-03-05T09:10:00.724Z,84.44
2023-03-05T09:12:27.244Z,83.57
2023-03-05T09:14:57.374Z,83.74
2023-03-05T09:17:24.175Z,82.34
2023-03-05T09:19:50.621Z,83.18
2023-03-05T09:22:17.157Z,83.96
2023-03-05T09:24:44.067Z,83.42
2023-03-05T09:27:10.708Z,82.59
2023-03-05T09:29:37.216Z,82.28
2023-03-05T09:32:03.901Z,81.47
2023-03-05T09:34:30.514Z,80.01
2023-03-05T09:36:56.955Z,81.28
2023-03-05T09:39:23.451Z,82.73
2023-03-05T09:42:02.474Z,82.29
2023-03-05T09:44:29.001Z,81.25
2023-03-05T09:47:05.212Z,81.50
2023-03-05T09:49:57.944Z,80.79
2023-03-05T09:52:53.990Z,80.40
2023-03-05T09:55:27.541Z,81.50
2023-03-05T09:57:59.276Z,80.71
2023-03-05T10:00:47.095Z,81.20
2023-03-05T10:03:22.309Z,79.12
2023-03-05T10:06:06.398Z,78.53
2023-03-05T10:08:46.330Z,79.36
2023-03-05T10:11:39.865Z,79.49
2023-03-05T10:14:13.741Z,78.33
2023-03-05T10:16:52.297Z,77.89
2023-03-05T10:19:37.104Z,77.78
2023-03-05T10:22:19.444Z,77.97
2023-03-05T10:25:20.408Z,78.21
2023-03-05T10:27:56.905Z,79.21
2023-03-05T10:30:39.022Z,81.29
2023-03-05T10:33:14.858Z,81.28
2023-03-05T10:35:44.650Z,82.08
2023-03-05T10:38:23.694Z,81.80
2023-03-05T10:40:54.446Z,81.60
2023-03-05T10:43:31.027Z,82.39
2023-03-05T10:45:58.519Z,82.36
2023-03-05T10:48:31.305Z,83.92
2023-03-05T10:51:02.195Z,83.10
2023-03-05T10:53:50.430Z,84.31
2023-03-05T10:56:21.535Z,84.12
2023-03-05T10:58:48.192Z,84.67
2023-03-05T11:01:15.624Z,85.26
2023-03-05T11:04:03.576Z,84.93
2023-03-05T11:06:45.792Z,85.06
2023-03-05T11:09:32.380Z,85.79
2023-03-05T11:12:01.945Z,85.23
2023-03-05T11:14:33.453Z,86.49
2023-03-05T11:17:02.440Z,86.57
2023-03-05T11:19:34.514Z,85.78
2023-03-05T11:22:21.762Z,86.34
2023-03-05T11:25:14.623Z,86.33
2023-03-05T11:27:52.509Z,85.01
2023-03-05T11:30:37.795Z,86.87
2023-03-05T11:33:15.137Z,86.29
2023-03-05T11:35:43.672Z,85.41
2023-03-05T11:38:27.454Z,85.07
2023-03-05T11:40:56.292Z,85.47
2023-03-05T11:43:25.881Z,82.20
2023-03-05T11:45:59.271Z,82.77
2023-03-05T11:48:30.457Z,82.19
2023-03-05T11:51:01.609Z,81.83
2023-03-05T11:53:37.060Z,80.02
2023-03-05T11:56:21.478Z,80.74
2023-03-05T11:59:19.073Z,80.21
2023-03-05T12:01:54.218Z,80.82
2023-03-05T12:04:22.154Z,79.34
2023-03-05T12:06:58.310Z,76.67
2023-03-05T12:09:47.749Z,78.02
2023-03-05T12:12:26.376Z,77.70
2023-03-05T12:15:04.758Z,78.23
2023-03-05T12:17:39.911Z,76.22
2023-03-05T12:20:18.602Z,77.42
2023-03-05T12:22:45.688Z,77.05
2023-03-05T12:25:44.325Z,78.09
2023-03-05T12:28:34.641Z,79.14
2023-03-05T12:31:20.351Z,79.68
2023-03-05T12:33:46.836Z,78.46
2023-03-05T12:36:19.364Z,77.96
2023-03-05T12:38:52.918Z,78.22
2023-03-05T12:41:22.220Z,77.20
2023-03-05T12:44:07.083Z,76.72
2023-03-05T12:46:36.108Z,75.39
2023-03-05T12:49:17.861Z,75.63
2023-03-05T12:51:46.890Z,75.37
2023-03-05T12:54:35.765Z,75.94
2023-03-05T12:57:13.324Z,75.89
2023-03-05T13:00:08.259Z,76.09
2023-03-05T13:02:38.659Z,77.65
2023-03-05T13:05:21.739Z,77.76
2023-03-05T13:07:49.312Z,76.09
2023-03-05T13:10:28.886Z,76.01
2023-03-05T13:12:58.444Z,78.57
2023-03-05T13:15:26.299Z,79.74
2023-03-05T13:18:01.143Z,78.94
2023-03-05T13:20:37.554Z,80.20
2023-03-05T13:23:21.085Z,80.15
2023-03-05T13:25:59.720Z,78.73
2023-03-05T13:28:26.615Z,78.18
2023-03-05T13:30:57.065Z,79.55
2023-03-05T13:33:28.026Z,79.34
2023-03-05T13:35:54.989Z,83.15
2023-03-05T13:38:25.002Z,80.25
2023-03-05T13:41:04.131Z,80.11
2023-03-05T13:43:30.732Z,79.77
2023-03-05T13:45:58.600Z,80.09
2023-03-05T13:48:26.971Z,80.23
2023-03-05T13:50:58.307Z,81.07
2023-03-05T13:53:30.734Z,82.41
2023-03-05T13:56:02.849Z,81.91
2023-03-05T13:58:53.415Z,81.15
2023-03-05T14:01:36.882Z,82.78
2023-03-05T14:04:15.823Z,81.61
2023-03-05T14:07:05.784Z,81.82
2023-03-05T14:09:38.207Z,83.02
2023-03-05T14:12:14.704Z,83.35
2023-03-05T14:14:43.844Z,82.67
2023-03-05T14:17:38.132Z,82.43
2023-03-05T14:20:23.284Z,82.30
2023-03-05T14:22:53.377Z,83.08
2023-03-05T14:25:39.624Z,83.00
2023-03-05T14:28:18.195Z,83.29
2023-03-05T14:30:46.303Z,84.37
2023-03-05T14:33:13.346Z,83.16
2023-03-05T14:35:40.281Z,82.79
2023-03-05T14:38:08.408Z,81.58
2023-03-05T14:40:36.383Z,84.20
2023-03-05T14:43:10.660Z,83.75
2023-03-05T14:45:43.553Z,84.80
2023-03-05T14:48:13.464Z,85.00
2023-03-05T14:50:51.655Z,85.92
2023-03-05T14:53:21.955Z,86.51
2023-03-05T14:55:51.098Z,86.05
2023-03-05T14:58:21.714Z,87.96
2023-03-05T15:00:51.087Z,87.63
2023-03-05T15:03:18.666Z,87.76
2023-03-05T15:05:48.311Z,89.14
2023-03-05T15:08:18.374Z,87.73
2023-03-05T15:10:44.864Z,88.26
2023-03-05T15:13:16.709Z,89.98
2023-03-05T15:15:45.044Z,90.04
2023-03-05T15:18:17.405Z,88.05
2023-03-05T15:20:45.092Z,87.77
2023-03-05T15:23:12.843Z,88.13
2023-03-05T15:25:40.036Z,88.45
2023-03-05T15:28:06.730Z,89.06
2023-03-05T15:30:41.393Z,88.72
2023-03-05T15:33:11.927Z,87.93
2023-03-05T15:35:38.606Z,88.13
2023-03-05T15:38:05.275Z,87.96
2023-03-05T15:40:32.211Z,88.18
2023-03-05T15:43:00.208Z,87.69
2023-03-05T15:45:27.543Z,87.59
2023-03-05T15:47:54.173Z,88.47
2023-03-05T15:50:21.764Z,87.53
2023-03-05T15:52:49.099Z,87.78
2023-03-05T15:55:15.993Z,87.20
2023-03-05T15:57:44.575Z,88.26
2023-03-05T16:00:13.293Z,87.68
2023-03-05T16:02:39.859Z,87.52
2023-03-05T16:05:07.339Z,86.09
2023-03-05T16:07:36.832Z,87.33
2023-03-05T16:10:05.029Z,88.31
2023-03-05T16:12:40.491Z,88.38
2023-03-05T16:15:09.624Z,88.37
2023-03-05T16:17:36.984Z,90.21
2023-03-05T16:20:04.886Z,90.02
2023-03-05T16:22:31.347Z,88.58
2023-03-05T16:24:58.480Z,88.68
2023-03-05T16:27:25.054Z,90.02
2023-03-05T16:29:51.562Z,89.58
2023-03-05T16:32:18.443Z,90.95
2023-03-05T16:34:45.041Z,89.48
2023-03-05T16:37:19.481Z,89.20
2023-03-05T16:39:46.170Z,90.11
2023-03-05T16:42:13.896Z,89.05
2023-03-05T16:44:41.864Z,90.21
2023-03-05T16:47:11.935Z,89.95
2023-03-05T16:49:39.391Z,91.83
2023-03-05T16:52:18.429Z,90.99
2023-03-05T16:54:45.592Z,90.79
2023-03-05T16:57:12.254Z,91.15
2023-03-05T16:59:39.005Z,91.24
2023-03-05T17:02:05.939Z,91.69
2023-03-05T17:04:32.764Z,91.08
2023-03-05T17:06:59.658Z,91.55
2023-03-05T17:09:26.179Z,91.35
2023-03-05T17:11:54.189Z,91.87
2023-03-05T17:14:21.301Z,91.87
2023-03-05T17:16:48.061Z,92.36
2023-03-05T17:19:14.863Z,93.39
2023-03-05T17:21:42.541Z,93.45
2023-03-05T17:24:10.209Z,93.79
2023-03-05T17:26:36.807Z,93.07
2023-03-05T17:29:06.882Z,92.83
2023-03-05T17:31:33.754Z,93.65
2023-03-05T17:34:00.221Z,93.29
2023-03-05T17:36:26.913Z,93.81
2023-03-05T17:38:53.850Z,94.14
2023-03-05T17:41:20.821Z,94.61
2023-03-05T17:43:47.865Z,94.80
2023-03-05T17:46:15.129Z,95.81
2023-03-05T17:48:41.885Z,95.20
2023-03-05T17:51:11.431Z,96.14
2023-03-05T17:53:39.407Z,97.05
2023-03-05T17:56:08.055Z,97.26
2023-03-05T17:58:34.607Z,96.78
2023-03-05T18:01:01.244Z,97.00
2023-03-05T18:03:27.731Z,97.65
2023-03-05T18:05:54.425Z,98.36
2023-03-05T18:08:21.028Z,98.85
2023-03-05T18:10:47.561Z,99.75
2023-03-05T18:13:14.205Z,99.62
2023-03-05T18:15:47.233Z,100.00
2023-03-05T18:18:15.701Z,100.00
2023-03-05T18:20:42.833Z,99.86
2023-03-05T18:23:09.779Z,98.95
2023-03-05T18:25:36.294Z,98.09
2023-03-05T18:28:05.450Z,97.02
2023-03-05T18:30:33.039Z,97.76
2023-03-05T18:33:00.524Z,98.07
2023-03-05T18:35:29.100Z,97.55
2023-03-05T18:37:56.206Z,97.95
2023-03-05T18:40:25.227Z,98.76
2023-03-05T18:42:51.873Z,99.23
2023-03-05T18:45:20.971Z,99.45
2023-03-05T18:47:48.992Z,99.73
2023-03-05T18:50:18.625Z,100.00
2023-03-05T18:52:48.061Z,100.00
2023-03-05T18:55:27.634Z,100.00
2023-03-05T18:57:54.929Z,99.68
2023-03-05T19:00:25.472Z,99.91
2023-03-05T19:02:52.295Z,100.00
2023-03-05T19:05:19.062Z,100.00
2023-03-05T19:07:46.947Z,100.00
2023-03-05T19:10:15.234Z,99.43
2023-03-05T19:12:57.834Z,99.74
2023-03-05T19:15:24.523Z,100.00
2023-03-05T19:17:51.673Z,100.00
2023-03-05T19:20:18.737Z,100.00
2023-03-05T19:22:45.369Z,100.00
2023-03-05T19:25:12.474Z,100.00
2023-03-05T19:27:39.324Z,100.00
2023-03-05T19:30:06.764Z,100.00
2023-03-05T19:32:33.330Z,100.00
2023-03-05T19:35:00.039Z,100.00
2023-03-05T19:37:27.191Z,100.00
2023-03-05T19:39:53.754Z,100.00
2023-03-05T19:42:20.484Z,100.00
2023-03-05T19:44:47.041Z,100.00
2023-03-05T19:47:13.574Z,100.00
2023-03-05T19:49:40.372Z,100.00
2023-03-05T19:52:07.316Z,100.00
2023-03-05T19:54:34.289Z,100.00
2023-03-05T19:57:00.852Z,100.00
2023-03-05T19:59:27.449Z,100.00
2023-03-05T20:01:54.279Z,100.00
2023-03-05T20:04:22.682Z,100.00
2023-03-05T20:06:49.796Z,100.00
2023-03-05T20:09:17.015Z,100.00
2023-03-05T20:11:44.248Z,100.00
2023-03-05T20:14:13.079Z,100.00
2023-03-05T20:16:39.906Z,100.00
2023-03-05T20:19:07.754Z,100.00
2023-03-05T20:21:38.689Z,100.00
2023-03-05T20:24:09.884Z,100.00
2023-03-05T20:26:38.604Z,100.00
2023-03-05T20:29:05.764Z,100.00
2023-03-05T20:31:37.125Z,100.00
2023-03-05T20:34:12.878Z,100.00
2023-03-05T20:36:40.279Z,100.00
2023-03-05T20:39:07.458Z,100.00
2023-03-05T20:41:35.933Z,100.00
2023-03-05T20:44:03.389Z,100.00
2023-03-05T20:46:32.367Z,100.00
2023-03-05T20:49:00.774Z,100.00
2023-03-05T20:51:35.835Z,100.00
2023-03-05T20:54:05.579Z,100.00
2023-03-05T20:56:34.793Z,100.00
2023-03-05T20:59:04.462Z,100.00
2023-03-05T21:01:32.967Z,100.00
2023-03-05T21:04:00.413Z,100.00
2023-03-05T21:06:28.243Z,100.00
2023-03-05T21:08:55.110Z,100.00
2023-03-05T21:11:22.249Z,100.00
2023-03-05T21:13:48.887Z,100.00
2023-03-05T21:16:18.613Z,100.00
2023-03-05T21:18:45.649Z,100.00
2023-03-05T21:21:12.494Z,100.00
2023-03-05T21:23:39.056Z,100.00
2023-03-05T21:26:05.868Z,100.00
2023-03-05T21:28:33.030Z,100.00
2023-03-05T21:31:06.731Z,100.00
2023-03-05T21:33:33.405Z,99.91
2023-03-05T21:36:00.114Z,98.39
2023-03-05T21:38:29.765Z,99.44
2023-03-05T21:40:58.440Z,97.37
2023-03-05T21:43:26.244Z,96.34
2023-03-05T21:45:54.780Z,97.19
2023-03-05T21:48:22.583Z,96.13
2023-03-05T21:50:49.833Z,95.45
2023-03-05T21:53:17.259Z,93.74
2023-03-05T21:56:04.164Z,92.30
2023-03-05T21:58:33.045Z,91.84
2023-03-05T22:01:00.061Z,92.62
2023-03-05T22:03:27.440Z,92.93
2023-03-05T22:05:55.625Z,91.80
2023-03-05T22:08:23.674Z,91.15
2023-03-05T22:10:50.473Z,89.79
2023-03-05T22:13:17.950Z,90.22
2023-03-05T22:15:50.449Z,89.48
2023-03-05T22:18:20.055Z,89.24
2023-03-05T22:20:47.096Z,88.04
2023-03-05T22:23:14.279Z,87.92
2023-03-05T22:25:41.905Z,88.28
2023-03-05T22:28:09.748Z,88.29
2023-03-05T22:30:36.744Z,88.96
2023-03-05T22:33:03.728Z,90.83
2023-03-05T22:35:30.509Z,90.41
2023-03-05T22:37:58.566Z,90.29
2023-03-05T22:40:25.088Z,89.40
2023-03-05T22:42:51.694Z,89.31
2023-03-05T22:45:18.715Z,87.98
2023-03-05T22:47:49.803Z,88.49
2023-03-05T22:50:17.440Z,88.86
2023-03-05T22:52:44.014Z,87.85
2023-03-05T22:55:14.955Z,86.76
2023-03-05T22:57:42.448Z,86.73
2023-03-05T23:00:16.666Z,88.17
2023-03-05T23:02:44.566Z,87.26
2023-03-05T23:05:12.050Z,85.78
2023-03-05T23:07:40.705Z,86.15
2023-03-05T23:10:10.680Z,87.08
2023-03-05T23:12:40.218Z,87.16
2023-03-05T23:15:13.708Z,88.04
2023-03-05T23:17:40.672Z,88.79
2023-03-05T23:20:10.108Z,88.95
2023-03-05T23:22:38.437Z,88.71
2023-03-05T23:25:05.721Z,88.43
2023-03-05T23:27:32.230Z,89.11
2023-03-05T23:30:20.039Z,88.61
2023-03-05T23:32:48.225Z,87.79
2023-03-05T23:35:18.340Z,87.96
2023-03-05T23:37:44.959Z,87.50
2023-03-05T23:40:24.479Z,87.75
2023-03-05T23:42:51.994Z,88.69
2023-03-05T23:45:20.238Z,88.08
2023-03-05T23:47:48.337Z,88.10
2023-03-05T23:50:29.246Z,88.68
2023-03-05T23:52:55.950Z,88.33
2023-03-05T23:55:27.196Z,87.68
2023-03-05T23:57:54.407Z,88.10
